sensor_id;sensor_type;location;lat;lon;timestamp;pressure;altitude;pressure_sealevel;temperature;humidity
71638;BME280;59485;43.542;-5.676;2022-07-29T00:01:06;101574.78;;;20.92;71.59
71638;BME280;59485;43.542;-5.676;2022-07-29T00:03:31;101573.09;;;20.91;71.54
71638;BME280;59485;43.542;-5.676;2022-07-29T00:05:57;101562.63;;;20.86;71.46
71638;BME280;59485;43.542;-5.676;2022-07-29T00:08:22;101547.72;;;20.81;71.58
71638;BME280;59485;43.542;-5.676;2022-07-29T00:10:48;101577.06;;;20.95;70.99
71638;BME280;59485;43.542;-5.676;2022-07-29T00:13:13;101569.78;;;20.94;71.45
71638;BME280;59485;43.542;-5.676;2022-07-29T00:15:39;101573.09;;;20.91;71.29
71638;BME280;59485;43.542;-5.676;2022-07-29T00:18:04;101564.84;;;20.96;71.45
71638;BME280;59485;43.542;-5.676;2022-07-29T00:22:55;101564.34;;;20.87;71.00
71638;BME280;59485;43.542;-5.676;2022-07-29T00:25:20;101572.13;;;20.97;71.82
71638;BME280;59485;43.542;-5.676;2022-07-29T00:27:46;101572.59;;;20.94;71.98
71638;BME280;59485;43.542;-5.676;2022-07-29T00:30:12;101570.91;;;20.93;72.13
71638;BME280;59485;43.542;-5.676;2022-07-29T00:32:37;101565.34;;;20.93;72.14
71638;BME280;59485;43.542;-5.676;2022-07-29T00:35:04;101546.16;;;20.85;71.78
71638;BME280;59485;43.542;-5.676;2022-07-29T00:37:48;101540.00;;;20.83;71.73
71638;BME280;59485;43.542;-5.676;2022-07-29T00:40:14;101537.66;;;20.80;71.38
71638;BME280;59485;43.542;-5.676;2022-07-29T00:42:57;101544.59;;;20.89;71.57
71638;BME280;59485;43.542;-5.676;2022-07-29T00:45:23;101530.53;;;20.84;71.39
71638;BME280;59485;43.542;-5.676;2022-07-29T00:47:48;101556.97;;;20.93;71.23
71638;BME280;59485;43.542;-5.676;2022-07-29T00:50:14;101538.91;;;20.84;71.48
71638;BME280;59485;43.542;-5.676;2022-07-29T00:52:41;101532.09;;;20.80;71.50
71638;BME280;59485;43.542;-5.676;2022-07-29T00:55:09;101552.72;;;20.90;71.51
71638;BME280;59485;43.542;-5.676;2022-07-29T00:57:35;101552.72;;;20.90;71.24
71638;BME280;59485;43.542;-5.676;2022-07-29T01:00:03;101531.47;;;20.78;71.19
71638;BME280;59485;43.542;-5.676;2022-07-29T01:02:29;101542.78;;;20.83;71.67
71638;BME280;59485;43.542;-5.676;2022-07-29T01:04:55;101531.63;;;20.83;71.12
71638;BME280;59485;43.542;-5.676;2022-07-29T01:07:24;101542.88;;;20.88;71.07
71638;BME280;59485;43.542;-5.676;2022-07-29T01:09:51;101519.38;;;20.72;71.43
71638;BME280;59485;43.542;-5.676;2022-07-29T01:12:25;101538.91;;;20.84;71.64
71638;BME280;59485;43.542;-5.676;2022-07-29T01:14:52;101529.19;;;20.75;71.63
71638;BME280;59485;43.542;-5.676;2022-07-29T01:17:26;101536.69;;;20.86;71.75
71638;BME280;59485;43.542;-5.676;2022-07-29T01:31:07;101525.63;;;20.68;71.94
71638;BME280;59485;43.542;-5.676;2022-07-29T01:33:40;101541.69;;;20.84;71.65
71638;BME280;59485;43.542;-5.676;2022-07-29T01:36:23;101530.88;;;20.76;71.68
71638;BME280;59485;43.542;-5.676;2022-07-29T01:39:19;101544.22;;;20.85;71.80
71638;BME280;59485;43.542;-5.676;2022-07-29T01:44:55;101544.22;;;20.85;71.99
71638;BME280;59485;43.542;-5.676;2022-07-29T01:47:26;101546.66;;;20.82;72.13
71638;BME280;59485;43.542;-5.676;2022-07-29T01:49:56;101524.56;;;20.69;71.98
71638;BME280;59485;43.542;-5.676;2022-07-29T01:52:56;101558.75;;;20.76;73.02
71638;BME280;59485;43.542;-5.676;2022-07-29T01:55:27;101548.06;;;20.73;72.70
71638;BME280;59485;43.542;-5.676;2022-07-29T01:57:55;101557.53;;;20.72;72.52
71638;BME280;59485;43.542;-5.676;2022-07-29T02:00:22;101550.47;;;20.69;73.01
71638;BME280;59485;43.542;-5.676;2022-07-29T02:02:49;101556.06;;;20.69;73.18
71638;BME280;59485;43.542;-5.676;2022-07-29T02:05:19;101550.72;;;20.68;73.14
71638;BME280;59485;43.542;-5.676;2022-07-29T02:07:47;101529.97;;;20.52;73.37
71638;BME280;59485;43.542;-5.676;2022-07-29T02:10:15;101556.16;;;20.63;73.19
71638;BME280;59485;43.542;-5.676;2022-07-29T02:12:43;101549.34;;;20.58;73.63
71638;BME280;59485;43.542;-5.676;2022-07-29T02:15:10;101545.81;;;20.51;74.21
71638;BME280;59485;43.542;-5.676;2022-07-29T02:17:43;101542.41;;;20.49;74.15
71638;BME280;59485;43.542;-5.676;2022-07-29T02:20:10;101545.69;;;20.46;74.66
71638;BME280;59485;43.542;-5.676;2022-07-29T02:22:38;101545.47;;;20.48;74.76
71638;BME280;59485;43.542;-5.676;2022-07-29T02:25:05;101530.06;;;20.45;74.51
71638;BME280;59485;43.542;-5.676;2022-07-29T02:27:33;101543.16;;;20.45;74.44
71638;BME280;59485;43.542;-5.676;2022-07-29T02:30:02;101525.31;;;20.34;74.73
71638;BME280;59485;43.542;-5.676;2022-07-29T02:32:29;101531.06;;;20.33;74.07
71638;BME280;59485;43.542;-5.676;2022-07-29T02:34:56;101533.66;;;20.34;73.78
71638;BME280;59485;43.542;-5.676;2022-07-29T02:37:24;101534.09;;;20.31;74.14
71638;BME280;59485;43.542;-5.676;2022-07-29T02:39:53;101549.06;;;20.37;74.22
71638;BME280;59485;43.542;-5.676;2022-07-29T02:42:21;101544.03;;;20.27;73.93
71638;BME280;59485;43.542;-5.676;2022-07-29T02:44:48;101555.53;;;20.31;75.28
71638;BME280;59485;43.542;-5.676;2022-07-29T02:47:22;101537.06;;;20.18;75.84
71638;BME280;59485;43.542;-5.676;2022-07-29T02:57:47;101542.03;;;20.16;76.79
71638;BME280;59485;43.542;-5.676;2022-07-29T03:00:14;101541.03;;;20.10;77.46
71638;BME280;59485;43.542;-5.676;2022-07-29T03:02:44;101556.88;;;20.10;77.60
71638;BME280;59485;43.542;-5.676;2022-07-29T03:05:16;101560.88;;;20.14;77.71
71638;BME280;59485;43.542;-5.676;2022-07-29T03:07:45;101549.84;;;20.07;77.74
71638;BME280;59485;43.542;-5.676;2022-07-29T03:10:12;101558.81;;;20.09;78.04
71638;BME280;59485;43.542;-5.676;2022-07-29T03:12:38;101571.88;;;20.09;77.99
71638;BME280;59485;43.542;-5.676;2022-07-29T03:15:05;101566.66;;;20.01;78.86
71638;BME280;59485;43.542;-5.676;2022-07-29T03:17:31;101563.56;;;19.91;78.82
71638;BME280;59485;43.542;-5.676;2022-07-29T03:19:58;101569.03;;;19.97;78.79
71638;BME280;59485;43.542;-5.676;2022-07-29T03:22:24;101550.25;;;19.93;78.57
71638;BME280;59485;43.542;-5.676;2022-07-29T03:24:49;101555.50;;;20.01;78.58
71638;BME280;59485;43.542;-5.676;2022-07-29T03:27:15;101566.09;;;20.10;78.20
71638;BME280;59485;43.542;-5.676;2022-07-29T03:29:40;101540.50;;;20.02;78.12
71638;BME280;59485;43.542;-5.676;2022-07-29T03:32:06;101554.56;;;20.07;77.39
71638;BME280;59485;43.542;-5.676;2022-07-29T03:34:32;101557.03;;;20.15;76.60
71638;BME280;59485;43.542;-5.676;2022-07-29T03:36:57;101557.03;;;20.15;76.48
71638;BME280;59485;43.542;-5.676;2022-07-29T03:39:25;101550.47;;;20.09;76.46
71638;BME280;59485;43.542;-5.676;2022-07-29T03:41:55;101554.09;;;20.10;76.26
71638;BME280;59485;43.542;-5.676;2022-07-29T03:44:23;101554.56;;;20.07;75.82
71638;BME280;59485;43.542;-5.676;2022-07-29T03:46:51;101557.84;;;20.04;75.96
71638;BME280;59485;43.542;-5.676;2022-07-29T03:49:20;101547.84;;;19.96;76.30
71638;BME280;59485;43.542;-5.676;2022-07-29T03:51:47;101557.44;;;20.00;76.45
71638;BME280;59485;43.542;-5.676;2022-07-29T03:54:13;101542.53;;;19.95;76.29
71638;BME280;59485;43.542;-5.676;2022-07-29T03:56:43;101564.22;;;20.04;77.01
71638;BME280;59485;43.542;-5.676;2022-07-29T03:59:14;101555.28;;;20.02;76.70
71638;BME280;59485;43.542;-5.676;2022-07-29T04:01:41;101544.22;;;19.96;76.70
71638;BME280;59485;43.542;-5.676;2022-07-29T04:04:07;101553.81;;;20.00;76.84
71638;BME280;59485;43.542;-5.676;2022-07-29T04:06:43;101552.97;;;19.99;77.05
71638;BME280;59485;43.542;-5.676;2022-07-29T04:09:09;101565.06;;;20.05;76.91
71638;BME280;59485;43.542;-5.676;2022-07-29T04:11:36;101563.41;;;20.04;77.01
71638;BME280;59485;43.542;-5.676;2022-07-29T04:14:03;101554.56;;;20.07;76.84
71638;BME280;59485;43.542;-5.676;2022-07-29T04:16:29;101555.88;;;20.04;77.04
71638;BME280;59485;43.542;-5.676;2022-07-29T04:18:54;101562.22;;;20.11;76.69
71638;BME280;59485;43.542;-5.676;2022-07-29T04:21:20;101553.72;;;20.06;77.05
71638;BME280;59485;43.542;-5.676;2022-07-29T04:23:45;101557.50;;;20.12;76.72
71638;BME280;59485;43.542;-5.676;2022-07-29T04:26:15;101549.00;;;20.07;76.71
71638;BME280;59485;43.542;-5.676;2022-07-29T04:28:41;101557.97;;;20.09;76.77
71638;BME280;59485;43.542;-5.676;2022-07-29T04:31:08;101568.16;;;20.15;76.71
71638;BME280;59485;43.542;-5.676;2022-07-29T04:33:34;101550.69;;;20.08;76.98
71638;BME280;59485;43.542;-5.676;2022-07-29T04:35:59;101570.94;;;20.15;76.43
71638;BME280;59485;43.542;-5.676;2022-07-29T04:38:25;101551.41;;;20.03;76.44
71638;BME280;59485;43.542;-5.676;2022-07-29T04:40:50;101537.97;;;20.00;76.68
71638;BME280;59485;43.542;-5.676;2022-07-29T04:43:16;101540.50;;;20.02;76.48
71638;BME280;59485;43.542;-5.676;2022-07-29T04:45:41;101568.56;;;20.18;76.61
71638;BME280;59485;43.542;-5.676;2022-07-29T04:48:07;101559.56;;;20.16;76.40
71638;BME280;59485;43.542;-5.676;2022-07-29T04:50:33;101569.63;;;20.17;76.74
71638;BME280;59485;43.542;-5.676;2022-07-29T04:52:58;101574.13;;;20.18;76.58
71638;BME280;59485;43.542;-5.676;2022-07-29T04:55:24;101574.22;;;20.12;76.13
71638;BME280;59485;43.542;-5.676;2022-07-29T04:57:50;101572.97;;;20.08;76.64
71638;BME280;59485;43.542;-5.676;2022-07-29T05:00:16;101585.25;;;20.18;76.91
71638;BME280;59485;43.542;-5.676;2022-07-29T05:02:44;101580.16;;;20.15;76.53
71638;BME280;59485;43.542;-5.676;2022-07-29T05:05:10;101571.78;;;20.15;76.79
71638;BME280;59485;43.542;-5.676;2022-07-29T05:07:35;101586.72;;;20.21;76.65
71638;BME280;59485;43.542;-5.676;2022-07-29T05:10:01;101575.81;;;20.19;77.07
71638;BME280;59485;43.542;-5.676;2022-07-29T05:12:27;101579.47;;;20.20;76.59
71638;BME280;59485;43.542;-5.676;2022-07-29T05:14:52;101577.03;;;20.23;76.48
71638;BME280;59485;43.542;-5.676;2022-07-29T05:17:18;101585.56;;;20.29;76.72
71638;BME280;59485;43.542;-5.676;2022-07-29T05:19:44;101596.47;;;20.30;76.73
71638;BME280;59485;43.542;-5.676;2022-07-29T05:22:09;101587.19;;;20.18;76.52
71638;BME280;59485;43.542;-5.676;2022-07-29T05:24:35;101601.53;;;20.33;76.43
71638;BME280;59485;43.542;-5.676;2022-07-29T05:27:01;101610.97;;;20.32;76.23
71638;BME280;59485;43.542;-5.676;2022-07-29T05:29:27;101610.13;;;20.32;76.70
71638;BME280;59485;43.542;-5.676;2022-07-29T05:31:52;101610.09;;;20.38;76.38
71638;BME280;59485;43.542;-5.676;2022-07-29T05:34:18;101604.53;;;20.38;76.20
71638;BME280;59485;43.542;-5.676;2022-07-29T05:36:44;101600.34;;;20.29;76.05
71638;BME280;59485;43.542;-5.676;2022-07-29T05:39:10;101608.41;;;20.37;76.13
71638;BME280;59485;43.542;-5.676;2022-07-29T05:41:36;101603.44;;;20.39;76.11
71638;BME280;59485;43.542;-5.676;2022-07-29T05:44:02;101622.63;;;20.47;76.25
71638;BME280;59485;43.542;-5.676;2022-07-29T05:46:27;101624.31;;;20.48;76.08
71638;BME280;59485;43.542;-5.676;2022-07-29T05:48:53;101625.16;;;20.49;76.11
71638;BME280;59485;43.542;-5.676;2022-07-29T05:51:19;101628.41;;;20.46;76.22
71638;BME280;59485;43.542;-5.676;2022-07-29T05:53:44;101620.50;;;20.43;75.70
71638;BME280;59485;43.542;-5.676;2022-07-29T05:56:10;101635.81;;;20.52;75.79
71638;BME280;59485;43.542;-5.676;2022-07-29T05:58:36;101605.41;;;20.32;75.69
71638;BME280;59485;43.542;-5.676;2022-07-29T06:01:02;101642.69;;;20.49;75.25
71638;BME280;59485;43.542;-5.676;2022-07-29T06:03:27;101627.41;;;20.40;75.72
71638;BME280;59485;43.542;-5.676;2022-07-29T06:05:53;101654.00;;;20.54;74.88
71638;BME280;59485;43.542;-5.676;2022-07-29T06:08:19;101652.94;;;20.55;74.65
71638;BME280;59485;43.542;-5.676;2022-07-29T06:10:44;101641.38;;;20.52;74.82
71638;BME280;59485;43.542;-5.676;2022-07-29T06:13:11;101663.97;;;20.62;74.95
71638;BME280;59485;43.542;-5.676;2022-07-29T06:15:37;101653.91;;;20.61;75.27
71638;BME280;59485;43.542;-5.676;2022-07-29T06:18:02;101665.44;;;20.65;74.98
71638;BME280;59485;43.542;-5.676;2022-07-29T06:20:29;101646.72;;;20.53;74.95
71638;BME280;59485;43.542;-5.676;2022-07-29T06:22:56;101658.31;;;20.69;74.49
71638;BME280;59485;43.542;-5.676;2022-07-29T06:25:22;101664.50;;;20.71;74.15
71638;BME280;59485;43.542;-5.676;2022-07-29T06:27:48;101661.25;;;20.74;74.33
71638;BME280;59485;43.542;-5.676;2022-07-29T06:30:13;101634.06;;;20.57;73.59
71638;BME280;59485;43.542;-5.676;2022-07-29T06:32:39;101657.31;;;20.63;72.43
71638;BME280;59485;43.542;-5.676;2022-07-29T06:35:05;101675.31;;;20.79;72.87
71638;BME280;59485;43.542;-5.676;2022-07-29T06:37:30;101658.59;;;20.79;73.32
71638;BME280;59485;43.542;-5.676;2022-07-29T06:39:56;101656.88;;;20.78;73.15
71638;BME280;59485;43.542;-5.676;2022-07-29T06:42:43;101653.88;;;20.79;71.86
71638;BME280;59485;43.542;-5.676;2022-07-29T06:45:10;101677.19;;;20.96;72.01
71638;BME280;59485;43.542;-5.676;2022-07-29T06:47:36;101681.69;;;20.97;71.43
71638;BME280;59485;43.542;-5.676;2022-07-29T06:50:05;101684.38;;;21.04;71.58
71638;BME280;59485;43.542;-5.676;2022-07-29T06:52:31;101672.84;;;21.01;71.32
71638;BME280;59485;43.542;-5.676;2022-07-29T06:54:56;101686.81;;;21.12;71.35
71638;BME280;59485;43.542;-5.676;2022-07-29T06:57:22;101676.25;;;21.03;70.46
71638;BME280;59485;43.542;-5.676;2022-07-29T06:59:48;101666.31;;;21.07;70.86
71638;BME280;59485;43.542;-5.676;2022-07-29T07:02:14;101673.91;;;21.18;70.73
71638;BME280;59485;43.542;-5.676;2022-07-29T07:04:39;101693.09;;;21.26;69.86
71638;BME280;59485;43.542;-5.676;2022-07-29T07:07:07;101688.97;;;21.28;69.90
71638;BME280;59485;43.542;-5.676;2022-07-29T07:09:33;101690.66;;;21.29;69.90
71638;BME280;59485;43.542;-5.676;2022-07-29T07:11:58;101699.28;;;21.40;68.94
71638;BME280;59485;43.542;-5.676;2022-07-29T07:14:24;101683.34;;;21.17;68.87
71638;BME280;59485;43.542;-5.676;2022-07-29T07:16:51;101703.09;;;21.15;69.56
71638;BME280;59485;43.542;-5.676;2022-07-29T07:19:17;101686.22;;;21.10;69.10
71638;BME280;59485;43.542;-5.676;2022-07-29T07:21:44;101705.03;;;21.15;70.02
71638;BME280;59485;43.542;-5.676;2022-07-29T07:24:09;101698.47;;;21.09;70.03
71638;BME280;59485;43.542;-5.676;2022-07-29T07:26:35;101708.00;;;21.20;70.07
71638;BME280;59485;43.542;-5.676;2022-07-29T07:29:01;101690.41;;;21.19;69.70
71638;BME280;59485;43.542;-5.676;2022-07-29T07:31:26;101699.22;;;21.16;69.23
71638;BME280;59485;43.542;-5.676;2022-07-29T07:33:52;101698.44;;;21.27;69.61
71638;BME280;59485;43.542;-5.676;2022-07-29T07:36:18;101713.50;;;21.38;69.40
71638;BME280;59485;43.542;-5.676;2022-07-29T07:38:44;101697.22;;;21.35;68.94
71638;BME280;59485;43.542;-5.676;2022-07-29T07:41:10;101709.00;;;21.49;68.68
71638;BME280;59485;43.542;-5.676;2022-07-29T07:43:35;101714.59;;;21.49;68.94
71638;BME280;59485;43.542;-5.676;2022-07-29T07:46:01;101713.50;;;21.50;68.57
71638;BME280;59485;43.542;-5.676;2022-07-29T07:48:26;101693.97;;;21.50;68.98
71638;BME280;59485;43.542;-5.676;2022-07-29T07:50:52;101708.34;;;21.65;68.68
71638;BME280;59485;43.542;-5.676;2022-07-29T07:53:17;101718.63;;;21.76;67.89
71638;BME280;59485;43.542;-5.676;2022-07-29T07:55:43;101708.81;;;21.74;68.18
71638;BME280;59485;43.542;-5.676;2022-07-29T07:58:09;101716.56;;;21.83;68.04
71638;BME280;59485;43.542;-5.676;2022-07-29T08:00:35;101727.88;;;21.88;67.48
71638;BME280;59485;43.542;-5.676;2022-07-29T08:03:01;101731.28;;;21.90;67.50
71638;BME280;59485;43.542;-5.676;2022-07-29T08:05:26;101731.63;;;21.94;68.16
71638;BME280;59485;43.542;-5.676;2022-07-29T08:07:52;101733.63;;;22.05;68.45
71638;BME280;59485;43.542;-5.676;2022-07-29T08:10:19;101738.84;;;22.13;67.58
71638;BME280;59485;43.542;-5.676;2022-07-29T08:13:06;101734.34;;;22.12;67.45
71638;BME280;59485;43.542;-5.676;2022-07-29T08:15:32;101734.56;;;22.11;67.14
71638;BME280;59485;43.542;-5.676;2022-07-29T08:17:57;101742.84;;;22.17;67.27
71638;BME280;59485;43.542;-5.676;2022-07-29T08:20:24;101736.38;;;22.28;66.71
71638;BME280;59485;43.542;-5.676;2022-07-29T08:22:49;101727.53;;;22.20;66.82
71638;BME280;59485;43.542;-5.676;2022-07-29T08:25:15;101736.03;;;22.36;67.01
71638;BME280;59485;43.542;-5.676;2022-07-29T08:27:40;101719.03;;;22.26;67.25
71638;BME280;59485;43.542;-5.676;2022-07-29T08:30:06;101740.78;;;22.36;66.74
71638;BME280;59485;43.542;-5.676;2022-07-29T08:32:32;101748.31;;;22.35;67.09
71638;BME280;59485;43.542;-5.676;2022-07-29T08:34:57;101742.72;;;22.35;67.49
71638;BME280;59485;43.542;-5.676;2022-07-29T08:37:23;101730.47;;;22.25;67.45
71638;BME280;59485;43.542;-5.676;2022-07-29T08:39:48;101746.69;;;22.39;67.56
71638;BME280;59485;43.542;-5.676;2022-07-29T08:42:15;101755.31;;;22.38;67.91
71638;BME280;59485;43.542;-5.676;2022-07-29T08:44:42;101746.94;;;22.38;67.90
71638;BME280;59485;43.542;-5.676;2022-07-29T08:47:07;101720.84;;;22.32;67.50
71638;BME280;59485;43.542;-5.676;2022-07-29T08:49:34;101737.59;;;22.32;67.68
71638;BME280;59485;43.542;-5.676;2022-07-29T08:52:01;101758.59;;;22.46;67.81
71638;BME280;59485;43.542;-5.676;2022-07-29T08:54:27;101730.78;;;22.28;67.29
71638;BME280;59485;43.542;-5.676;2022-07-29T08:56:54;101759.44;;;22.47;67.15
71638;BME280;59485;43.542;-5.676;2022-07-29T08:59:22;101743.56;;;22.36;67.19
71638;BME280;59485;43.542;-5.676;2022-07-29T09:01:51;101748.66;;;22.39;67.94
71638;BME280;59485;43.542;-5.676;2022-07-29T09:04:18;101768.34;;;22.44;68.08
71638;BME280;59485;43.542;-5.676;2022-07-29T09:06:47;101770.84;;;22.57;67.87
71638;BME280;59485;43.542;-5.676;2022-07-29T09:09:13;101776.19;;;22.70;67.37
71638;BME280;59485;43.542;-5.676;2022-07-29T09:11:40;101778.28;;;22.63;68.52
71638;BME280;59485;43.542;-5.676;2022-07-29T09:14:06;101777.28;;;22.58;68.84
71638;BME280;59485;43.542;-5.676;2022-07-29T09:16:52;101768.19;;;22.62;67.31
71638;BME280;59485;43.542;-5.676;2022-07-29T09:21:55;101788.34;;;22.76;67.42
71638;BME280;59485;43.542;-5.676;2022-07-29T09:24:44;101793.91;;;22.64;67.36
71638;BME280;59485;43.542;-5.676;2022-07-29T09:29:42;101768.22;;;22.16;69.37
71638;BME280;59485;43.542;-5.676;2022-07-29T09:32:09;101783.78;;;22.23;69.16
71638;BME280;59485;43.542;-5.676;2022-07-29T09:34:38;101791.91;;;22.36;69.65
71638;BME280;59485;43.542;-5.676;2022-07-29T09:37:03;101794.81;;;22.41;68.33
71638;BME280;59485;43.542;-5.676;2022-07-29T09:39:37;101797.38;;;22.43;69.54
71638;BME280;59485;43.542;-5.676;2022-07-29T09:42:11;101801.59;;;22.57;70.29
71638;BME280;59485;43.542;-5.676;2022-07-29T09:44:45;101799.78;;;22.51;68.96
71638;BME280;59485;43.542;-5.676;2022-07-29T09:47:12;101782.69;;;22.36;69.43
71638;BME280;59485;43.542;-5.676;2022-07-29T09:49:57;101798.09;;;22.50;70.50
71638;BME280;59485;43.542;-5.676;2022-07-29T09:52:24;101795.06;;;22.40;69.84
71638;BME280;59485;43.542;-5.676;2022-07-29T09:54:50;101798.00;;;22.45;70.18
71638;BME280;59485;43.542;-5.676;2022-07-29T09:57:26;101793.34;;;22.51;70.08
71638;BME280;59485;43.542;-5.676;2022-07-29T09:59:57;101808.56;;;22.55;69.59
71638;BME280;59485;43.542;-5.676;2022-07-29T10:02:31;101799.19;;;22.61;69.42
71638;BME280;59485;43.542;-5.676;2022-07-29T10:04:57;101807.94;;;22.76;69.88
71638;BME280;59485;43.542;-5.676;2022-07-29T10:07:23;101799.88;;;22.68;69.14
71638;BME280;59485;43.542;-5.676;2022-07-29T10:09:53;101804.38;;;22.69;68.68
71638;BME280;59485;43.542;-5.676;2022-07-29T10:12:23;101811.09;;;22.79;68.87
71638;BME280;59485;43.542;-5.676;2022-07-29T10:14:49;101813.75;;;22.86;68.93
71638;BME280;59485;43.542;-5.676;2022-07-29T10:17:17;101817.38;;;22.87;68.52
71638;BME280;59485;43.542;-5.676;2022-07-29T10:19:43;101801.09;;;22.72;70.22
71638;BME280;59485;43.542;-5.676;2022-07-29T10:22:10;101808.88;;;22.70;71.25
71638;BME280;59485;43.542;-5.676;2022-07-29T10:24:36;101816.41;;;22.69;70.75
71638;BME280;59485;43.542;-5.676;2022-07-29T10:27:07;101825.16;;;22.85;71.09
71638;BME280;59485;43.542;-5.676;2022-07-29T10:29:33;101831.00;;;22.71;70.89
71638;BME280;59485;43.542;-5.676;2022-07-29T10:37:38;101839.28;;;22.78;71.82
71638;BME280;59485;43.542;-5.676;2022-07-29T10:43:28;101843.91;;;22.49;71.19
71638;BME280;59485;43.542;-5.676;2022-07-29T10:45:56;101850.22;;;22.44;71.97
71638;BME280;59485;43.542;-5.676;2022-07-29T10:48:23;101852.16;;;22.44;72.47
71638;BME280;59485;43.542;-5.676;2022-07-29T10:51:00;101840.25;;;22.37;72.17
71638;BME280;59485;43.542;-5.676;2022-07-29T10:53:50;101853.00;;;22.33;72.73
71638;BME280;59485;43.542;-5.676;2022-07-29T10:56:32;101844.16;;;22.36;72.46
71638;BME280;59485;43.542;-5.676;2022-07-29T11:01:49;101849.00;;;22.52;72.91
71638;BME280;59485;43.542;-5.676;2022-07-29T11:04:16;101855.91;;;22.50;71.67
71638;BME280;59485;43.542;-5.676;2022-07-29T11:09:25;101850.56;;;22.48;71.44
71638;BME280;59485;43.542;-5.676;2022-07-29T11:11:52;101828.84;;;22.50;71.79
71638;BME280;59485;43.542;-5.676;2022-07-29T11:14:20;101847.03;;;22.64;70.63
71638;BME280;59485;43.542;-5.676;2022-07-29T11:17:05;101839.16;;;22.61;71.11
71638;BME280;59485;43.542;-5.676;2022-07-29T11:19:31;101810.72;;;22.53;72.91
71638;BME280;59485;43.542;-5.676;2022-07-29T11:21:56;101850.44;;;22.66;72.14
71638;BME280;59485;43.542;-5.676;2022-07-29T11:24:25;101830.25;;;22.64;72.56
71638;BME280;59485;43.542;-5.676;2022-07-29T11:27:11;101838.69;;;22.76;72.28
71638;BME280;59485;43.542;-5.676;2022-07-29T11:29:56;101840.72;;;22.69;72.62
71638;BME280;59485;43.542;-5.676;2022-07-29T11:32:24;101847.78;;;22.71;73.23
71638;BME280;59485;43.542;-5.676;2022-07-29T11:37:38;101833.81;;;22.48;73.40
71638;BME280;59485;43.542;-5.676;2022-07-29T11:47:35;101841.72;;;22.28;74.97
71638;BME280;59485;43.542;-5.676;2022-07-29T11:50:04;101820.31;;;22.10;74.30
71638;BME280;59485;43.542;-5.676;2022-07-29T11:52:36;101836.59;;;22.25;74.14
71638;BME280;59485;43.542;-5.676;2022-07-29T11:55:09;101840.84;;;22.39;74.02
71638;BME280;59485;43.542;-5.676;2022-07-29T11:57:35;101828.22;;;22.25;73.63
71638;BME280;59485;43.542;-5.676;2022-07-29T12:00:07;101807.34;;;22.16;74.10
71638;BME280;59485;43.542;-5.676;2022-07-29T12:02:40;101831.03;;;22.25;74.43
71638;BME280;59485;43.542;-5.676;2022-07-29T12:05:07;101841.94;;;22.38;74.06
71638;BME280;59485;43.542;-5.676;2022-07-29T12:07:34;101840.97;;;22.32;73.00
71638;BME280;59485;43.542;-5.676;2022-07-29T12:10:01;101843.66;;;22.39;73.37
71638;BME280;59485;43.542;-5.676;2022-07-29T12:12:27;101832.59;;;22.21;73.30
71638;BME280;59485;43.542;-5.676;2022-07-29T12:14:52;101836.13;;;22.28;74.16
71638;BME280;59485;43.542;-5.676;2022-07-29T12:17:32;101813.66;;;22.23;73.44
71638;BME280;59485;43.542;-5.676;2022-07-29T12:20:00;101852.03;;;22.39;72.83
71638;BME280;59485;43.542;-5.676;2022-07-29T12:22:26;101849.13;;;22.34;74.22
71638;BME280;59485;43.542;-5.676;2022-07-29T12:24:53;101846.59;;;22.44;73.43
71638;BME280;59485;43.542;-5.676;2022-07-29T12:27:18;101848.38;;;22.38;73.62
71638;BME280;59485;43.542;-5.676;2022-07-29T12:29:54;101854.47;;;22.47;73.47
71638;BME280;59485;43.542;-5.676;2022-07-29T12:32:20;101824.22;;;22.32;73.92
71638;BME280;59485;43.542;-5.676;2022-07-29T12:34:46;101857.75;;;22.44;73.33
71638;BME280;59485;43.542;-5.676;2022-07-29T12:37:12;101859.69;;;22.32;73.62
71638;BME280;59485;43.542;-5.676;2022-07-29T12:39:37;101867.22;;;22.43;74.75
71638;BME280;59485;43.542;-5.676;2022-07-29T12:42:14;101852.03;;;22.27;74.00
71638;BME280;59485;43.542;-5.676;2022-07-29T12:44:49;101843.88;;;22.14;74.14
71638;BME280;59485;43.542;-5.676;2022-07-29T12:47:16;101844.72;;;22.15;74.20
71638;BME280;59485;43.542;-5.676;2022-07-29T12:49:43;101864.75;;;22.12;74.80
71638;BME280;59485;43.542;-5.676;2022-07-29T12:52:29;101872.78;;;22.20;75.38
71638;BME280;59485;43.542;-5.676;2022-07-29T12:54:55;101861.13;;;22.23;75.71
71638;BME280;59485;43.542;-5.676;2022-07-29T12:59:59;101867.19;;;22.20;74.43
71638;BME280;59485;43.542;-5.676;2022-07-29T13:02:25;101866.59;;;22.18;75.27
71638;BME280;59485;43.542;-5.676;2022-07-29T13:05:00;101875.47;;;22.38;75.35
71638;BME280;59485;43.542;-5.676;2022-07-29T13:07:29;101875.97;;;22.35;74.86
71638;BME280;59485;43.542;-5.676;2022-07-29T13:10:27;101875.72;;;22.25;74.82
71638;BME280;59485;43.542;-5.676;2022-07-29T13:13:06;101878.50;;;22.25;76.30
71638;BME280;59485;43.542;-5.676;2022-07-29T13:15:33;101874.38;;;22.39;75.86
71638;BME280;59485;43.542;-5.676;2022-07-29T13:17:59;101866.22;;;22.37;75.27
71638;BME280;59485;43.542;-5.676;2022-07-29T13:20:27;101872.09;;;22.36;75.95
71638;BME280;59485;43.542;-5.676;2022-07-29T13:22:55;101870.84;;;22.32;75.37
71638;BME280;59485;43.542;-5.676;2022-07-29T13:25:31;101870.59;;;22.22;76.13
71638;BME280;59485;43.542;-5.676;2022-07-29T13:27:58;101878.78;;;22.35;75.97
71638;BME280;59485;43.542;-5.676;2022-07-29T13:30:24;101867.94;;;22.38;75.66
71638;BME280;59485;43.542;-5.676;2022-07-29T13:32:51;101871.97;;;22.42;75.08
71638;BME280;59485;43.542;-5.676;2022-07-29T13:35:18;101881.06;;;22.50;75.47
71638;BME280;59485;43.542;-5.676;2022-07-29T13:37:44;101870.38;;;22.58;74.24
71638;BME280;59485;43.542;-5.676;2022-07-29T13:40:10;101876.72;;;22.77;75.02
71638;BME280;59485;43.542;-5.676;2022-07-29T13:42:36;101866.63;;;22.76;73.99